createdAt,value
2019-03-05T00:01:54.355Z,11.40
2019-03-05T00:04:25.148Z,10.67
2019-03-05T00:06:56.511Z,11.30
2019-03-05T00:09:27.443Z,11.00
2019-03-05T00:11:58.086Z,11.53
2019-03-05T00:14:28.913Z,11.37
2019-03-05T00:16:59.626Z,11.50
2019-03-05T00:19:30.517Z,11.10
2019-03-05T00:22:01.108Z,11.20
2019-03-05T00:25:02.520Z,11.53
2019-03-05T00:27:55.663Z,12.17
2019-03-05T00:30:53.037Z,11.47
2019-03-05T00:34:07.392Z,12.03
2019-03-05T00:36:44.773Z,11.57
2019-03-05T00:40:05.178Z,11.57
2019-03-05T00:43:20.576Z,11.10
2019-03-05T00:46:13.715Z,12.20
2019-03-05T00:49:21.072Z,11.50
2019-03-05T00:52:15.666Z,12.20
2019-03-05T00:55:02.225Z,12.77
2019-03-05T00:58:03.168Z,10.77
2019-03-05T01:01:09.426Z,13.33
2019-03-05T01:03:56.315Z,12.10
2019-03-05T01:06:28.634Z,10.70
2019-03-05T01:08:59.555Z,13.10
2019-03-05T01:11:30.077Z,13.70
2019-03-05T01:14:01.425Z,11.40
2019-03-05T01:16:33.713Z,10.83
2019-03-05T01:19:04.518Z,11.83
2019-03-05T01:21:35.400Z,11.70
2019-03-05T01:24:07.246Z,11.73
2019-03-05T01:26:37.826Z,9.93
2019-03-05T01:29:08.999Z,11.03
2019-03-05T01:32:13.752Z,11.33
2019-03-05T01:35:03.757Z,10.80
2019-03-05T01:37:34.420Z,10.20
2019-03-05T01:40:14.435Z,10.70
2019-03-05T01:42:45.825Z,10.10
2019-03-05T01:45:17.068Z,10.10
2019-03-05T01:47:47.860Z,10.13
2019-03-05T01:50:18.448Z,10.50
2019-03-05T01:52:49.085Z,10.40
2019-03-05T01:55:19.976Z,10.67
2019-03-05T01:57:50.758Z,10.40
2019-03-05T02:00:21.630Z,11.10
2019-03-05T02:02:52.417Z,11.47
2019-03-05T02:05:23.102Z,11.40
2019-03-05T02:07:54.283Z,12.03
2019-03-05T02:10:24.954Z,11.13
2019-03-05T02:12:55.761Z,11.47
2019-03-05T02:15:27.743Z,10.47
2019-03-05T02:17:59.553Z,11.70
2019-03-05T02:20:30.626Z,11.20
2019-03-05T02:23:37.386Z,11.27
2019-03-05T02:26:42.567Z,13.17
2019-03-05T02:29:43.246Z,11.33
2019-03-05T02:32:40.229Z,10.50
2019-03-05T02:35:51.298Z,11.37
2019-03-05T02:38:57.975Z,10.60
2019-03-05T02:42:02.601Z,11.77
2019-03-05T02:44:52.713Z,11.20
2019-03-05T02:48:14.657Z,11.03
2019-03-05T02:51:14.810Z,9.50
2019-03-05T02:54:25.938Z,11.30
2019-03-05T02:57:10.152Z,11.17
2019-03-05T02:59:41.060Z,11.30
2019-03-05T03:02:30.188Z,10.30
2019-03-05T03:05:10.363Z,11.30
2019-03-05T03:07:40.947Z,10.67
2019-03-05T03:10:16.498Z,11.70
2019-03-05T03:12:48.672Z,12.10
2019-03-05T03:15:21.285Z,11.77
2019-03-05T03:17:53.478Z,10.93
2019-03-05T03:20:24.800Z,12.60
2019-03-05T03:22:55.434Z,12.17
2019-03-05T03:25:26.355Z,12.40
2019-03-05T03:27:56.909Z,12.70
2019-03-05T03:30:28.562Z,12.50
2019-03-05T03:32:59.413Z,12.40
2019-03-05T03:35:51.528Z,11.97
2019-03-05T03:38:22.827Z,11.80
2019-03-05T03:40:53.711Z,12.03
2019-03-05T03:43:24.515Z,12.20
2019-03-05T03:45:55.393Z,12.37
2019-03-05T03:48:26.242Z,12.70
2019-03-05T03:50:57.767Z,12.87
2019-03-05T03:53:28.792Z,14.00
2019-03-05T03:56:00.966Z,14.00
2019-03-05T03:58:31.798Z,13.50
2019-03-05T04:01:02.584Z,14.13
2019-03-05T04:03:33.167Z,14.63
2019-03-05T04:06:04.009Z,16.70
2019-03-05T04:08:34.693Z,17.83
2019-03-05T04:11:05.377Z,15.40
2019-03-05T04:13:36.065Z,15.93
2019-03-05T04:16:06.865Z,15.33
2019-03-05T04:18:37.706Z,14.87
2019-03-05T04:21:08.409Z,14.37
2019-03-05T04:23:39.081Z,14.83
2019-03-05T04:26:09.873Z,14.47
2019-03-05T04:28:40.859Z,17.13
2019-03-05T04:31:11.557Z,16.53
2019-03-05T04:33:42.626Z,16.13
2019-03-05T04:36:13.197Z,16.90
2019-03-05T04:38:44.372Z,16.90
2019-03-05T04:41:15.045Z,16.63
2019-03-05T04:43:45.824Z,19.40
2019-03-05T04:46:35.252Z,21.03
2019-03-05T04:49:43.467Z,21.60
2019-03-05T04:52:16.766Z,19.20
2019-03-05T04:54:48.567Z,19.17
2019-03-05T04:57:19.330Z,19.43
2019-03-05T04:59:50.126Z,17.70
2019-03-05T05:02:20.763Z,18.17
2019-03-05T05:04:51.350Z,16.87
2019-03-05T05:07:22.178Z,17.30
2019-03-05T05:09:53.219Z,16.60
2019-03-05T05:12:23.942Z,17.10
2019-03-05T05:15:14.728Z,16.77
2019-03-05T05:17:45.638Z,16.57
2019-03-05T05:20:16.436Z,15.27
2019-03-05T05:22:47.235Z,16.00
2019-03-05T05:25:18.338Z,16.47
2019-03-05T05:27:49.027Z,17.10
2019-03-05T05:30:32.069Z,16.53
2019-03-05T05:33:03.393Z,17.40
2019-03-05T05:35:34.283Z,17.17
2019-03-05T05:38:05.260Z,17.80
2019-03-05T05:40:40.141Z,17.20
2019-03-05T05:43:22.470Z,19.20
2019-03-05T05:45:53.889Z,17.13
2019-03-05T05:48:24.423Z,18.30
2019-03-05T05:50:56.071Z,17.60
2019-03-05T05:53:27.090Z,19.00
2019-03-05T05:55:58.746Z,19.03
2019-03-05T05:58:29.456Z,20.57
2019-03-05T06:01:02.879Z,19.20
2019-03-05T06:03:33.597Z,18.13
2019-03-05T06:06:04.595Z,20.93
2019-03-05T06:08:37.886Z,20.80
2019-03-05T06:11:08.762Z,20.53
2019-03-05T06:13:39.566Z,21.30
2019-03-05T06:16:10.460Z,18.80
2019-03-05T06:18:41.149Z,20.70
2019-03-05T06:21:11.785Z,19.73
2019-03-05T06:23:42.336Z,16.87
2019-03-05T06:26:12.664Z,20.60
2019-03-05T06:28:43.277Z,17.07
2019-03-05T06:31:14.002Z,18.80
2019-03-05T06:33:44.425Z,18.20
2019-03-05T06:36:15.164Z,18.57
2019-03-05T06:38:46.945Z,17.63
2019-03-05T06:41:17.514Z,17.70
2019-03-05T06:43:47.928Z,16.60
2019-03-05T06:46:18.603Z,17.93
2019-03-05T06:48:49.297Z,17.63
2019-03-05T06:51:20.888Z,17.10
2019-03-05T06:53:51.783Z,17.20
2019-03-05T06:56:22.484Z,15.40
2019-03-05T06:58:53.019Z,15.87
2019-03-05T07:01:23.645Z,15.50
2019-03-05T07:03:54.655Z,15.33
2019-03-05T07:06:50.205Z,16.33
2019-03-05T07:09:46.756Z,16.77
2019-03-05T07:12:30.482Z,17.30
2019-03-05T07:15:25.709Z,16.90
2019-03-05T07:18:02.650Z,14.90
2019-03-05T07:21:03.981Z,14.70
2019-03-05T07:24:12.522Z,16.83
2019-03-05T07:26:42.859Z,16.27
2019-03-05T07:29:13.491Z,17.13
2019-03-05T07:31:44.381Z,18.20
2019-03-05T07:34:20.523Z,19.90
2019-03-05T07:36:51.195Z,18.30
2019-03-05T07:39:23.952Z,23.50
2019-03-05T07:41:54.653Z,22.13
2019-03-05T07:44:25.455Z,22.90
2019-03-05T07:46:56.031Z,20.30
2019-03-05T07:49:26.776Z,24.60
2019-03-05T07:51:57.577Z,20.37
2019-03-05T07:54:28.303Z,20.73
2019-03-05T07:57:00.750Z,19.67
2019-03-05T07:59:31.450Z,20.83
2019-03-05T08:02:02.064Z,22.40
2019-03-05T08:04:32.766Z,20.07
2019-03-05T08:07:03.615Z,19.23
2019-03-05T08:09:41.075Z,17.90
2019-03-05T08:12:38.681Z,18.27
2019-03-05T08:15:48.458Z,18.30
2019-03-05T08:18:19.331Z,14.30
2019-03-05T08:20:50.184Z,15.83
2019-03-05T08:23:20.807Z,17.50
2019-03-05T08:25:52.117Z,18.20
2019-03-05T08:28:22.876Z,16.93
2019-03-05T08:30:54.033Z,16.03
2019-03-05T08:33:24.846Z,17.57
2019-03-05T08:35:55.750Z,14.53
2019-03-05T08:38:26.653Z,12.57
2019-03-05T08:40:57.849Z,12.30
2019-03-05T08:43:28.571Z,12.03
2019-03-05T08:45:59.735Z,13.03
2019-03-05T08:48:30.550Z,13.00
2019-03-05T08:51:01.331Z,12.60
2019-03-05T08:53:32.452Z,12.50
2019-03-05T08:56:05.606Z,10.03
2019-03-05T08:58:36.157Z,13.33
2019-03-05T09:01:07.999Z,13.37
2019-03-05T09:03:39.014Z,14.07
2019-03-05T09:06:09.998Z,13.10
2019-03-05T09:08:40.870Z,13.90
2019-03-05T09:11:12.801Z,12.40
2019-03-05T09:13:43.582Z,14.53
2019-03-05T09:16:14.266Z,14.47
2019-03-05T09:18:45.007Z,14.77
2019-03-05T09:21:15.923Z,14.27
2019-03-05T09:23:48.588Z,16.07
2019-03-05T09:26:20.901Z,12.93
2019-03-05T09:28:51.543Z,12.67
2019-03-05T09:31:22.294Z,12.73
2019-03-05T09:33:53.005Z,12.80
2019-03-05T09:36:23.538Z,12.63
2019-03-05T09:38:54.179Z,14.30
2019-03-05T09:41:24.637Z,12.30
2019-03-05T09:43:56.387Z,12.27
2019-03-05T09:46:27.268Z,13.80
2019-03-05T09:48:58.015Z,13.50
2019-03-05T09:51:28.908Z,14.53
2019-03-05T09:53:59.608Z,13.90
2019-03-05T09:56:31.009Z,12.40
2019-03-05T09:59:01.811Z,12.67
2019-03-05T10:01:32.459Z,14.20
2019-03-05T10:04:03.613Z,13.80
2019-03-05T10:06:34.235Z,13.80
2019-03-05T10:09:06.000Z,13.60
2019-03-05T10:11:36.875Z,13.80
2019-03-05T10:14:07.853Z,12.33
2019-03-05T10:16:38.963Z,12.57
2019-03-05T10:19:09.863Z,13.67
2019-03-05T10:21:46.302Z,13.07
2019-03-05T10:24:13.032Z,13.13
2019-03-05T10:26:45.946Z,12.93
2019-03-05T10:29:16.888Z,12.67
2019-03-05T10:31:47.894Z,10.60
2019-03-05T10:34:18.611Z,10.57
2019-03-05T10:36:49.483Z,10.20
2019-03-05T10:39:30.991Z,10.80
2019-03-05T10:42:00.618Z,10.27
2019-03-05T10:44:32.905Z,10.93
2019-03-05T10:47:03.810Z,8.50
2019-03-05T10:49:34.438Z,9.63
2019-03-05T10:52:05.383Z,9.37
2019-03-05T10:54:35.931Z,9.80
2019-03-05T10:57:07.520Z,10.23
2019-03-05T10:59:39.567Z,10.20
2019-03-05T11:02:10.584Z,8.83
2019-03-05T11:04:45.667Z,8.50
2019-03-05T11:07:14.051Z,7.33
2019-03-05T11:09:45.045Z,7.77
2019-03-05T11:12:15.924Z,8.70
2019-03-05T11:14:46.790Z,7.50
2019-03-05T11:17:17.780Z,8.53
2019-03-05T11:19:48.728Z,8.10
2019-03-05T11:22:19.535Z,8.30
2019-03-05T11:24:50.142Z,7.17
2019-03-05T11:27:20.820Z,8.93
2019-03-05T11:29:51.445Z,8.40
2019-03-05T11:32:22.989Z,7.03
2019-03-05T11:34:53.865Z,6.93
2019-03-05T11:37:24.917Z,7.10
2019-03-05T11:39:55.830Z,6.87
2019-03-05T11:42:26.599Z,6.20
2019-03-05T11:45:07.155Z,6.73
2019-03-05T11:47:30.669Z,6.77
2019-03-05T11:50:01.405Z,6.80
2019-03-05T11:52:32.097Z,8.07
2019-03-05T11:55:02.991Z,8.60
2019-03-05T11:57:37.630Z,7.53
2019-03-05T12:00:11.312Z,7.07
2019-03-05T12:02:42.138Z,6.67
2019-03-05T12:05:13.076Z,7.70
2019-03-05T12:07:46.090Z,6.50
2019-03-05T12:10:18.933Z,8.00
2019-03-05T12:12:49.833Z,10.00
2019-03-05T12:15:20.824Z,7.27
2019-03-05T12:17:51.803Z,7.67
2019-03-05T12:20:22.484Z,6.80
2019-03-05T12:22:53.399Z,8.53
2019-03-05T12:25:24.496Z,8.20
2019-03-05T12:27:56.532Z,10.60
2019-03-05T12:30:27.428Z,8.90
2019-03-05T12:32:58.020Z,8.50
2019-03-05T12:35:28.859Z,8.57
2019-03-05T12:37:59.867Z,9.10
2019-03-05T12:40:30.812Z,9.40
2019-03-05T12:43:01.980Z,7.70
2019-03-05T12:45:32.715Z,8.80
2019-03-05T12:48:03.518Z,7.83
2019-03-05T12:50:34.414Z,8.73
2019-03-05T12:53:06.749Z,8.43
2019-03-05T12:55:38.993Z,8.60
2019-03-05T12:58:09.566Z,7.57
2019-03-05T13:00:41.955Z,7.73
2019-03-05T13:03:12.917Z,7.20
2019-03-05T13:05:44.041Z,7.63
2019-03-05T13:08:14.937Z,8.40
2019-03-05T13:10:46.115Z,8.10
2019-03-05T13:13:17.019Z,8.60
2019-03-05T13:15:47.889Z,7.80
2019-03-05T13:18:20.335Z,7.10
2019-03-05T13:20:51.012Z,6.60
2019-03-05T13:23:21.922Z,7.40
2019-03-05T13:25:52.721Z,7.77
2019-03-05T13:28:23.404Z,8.00
2019-03-05T13:30:54.474Z,7.97
2019-03-05T13:33:25.267Z,8.40
2019-03-05T13:35:56.097Z,8.37
2019-03-05T13:38:26.946Z,7.60
2019-03-05T13:40:58.126Z,7.70
2019-03-05T13:43:29.003Z,5.90
2019-03-05T13:46:00.072Z,7.10
2019-03-05T13:49:09.206Z,7.47
2019-03-05T13:52:20.534Z,7.00
2019-03-05T13:55:15.158Z,10.60
2019-03-05T13:58:22.237Z,7.10
2019-03-05T14:00:53.198Z,8.60
2019-03-05T14:03:34.811Z,7.03
2019-03-05T14:06:40.710Z,6.93
2019-03-05T14:09:19.344Z,7.13
2019-03-05T14:11:51.613Z,7.20
2019-03-05T14:14:28.446Z,7.40
2019-03-05T14:17:25.628Z,8.20
2019-03-05T14:19:56.667Z,7.97
2019-03-05T14:22:27.547Z,8.57
2019-03-05T14:25:02.582Z,8.70
2019-03-05T14:27:30.908Z,9.30
2019-03-05T14:30:03.065Z,6.60
2019-03-05T14:32:34.364Z,6.87
2019-03-05T14:35:14.016Z,6.60
2019-03-05T14:37:45.191Z,5.93
2019-03-05T14:40:24.536Z,6.90
2019-03-05T14:42:54.586Z,6.50
2019-03-05T14:45:28.585Z,5.80
2019-03-05T14:48:00.936Z,6.90
2019-03-05T14:50:31.926Z,6.67
2019-03-05T14:53:02.668Z,7.40
2019-03-05T14:55:34.154Z,6.90
2019-03-05T14:58:06.904Z,7.47
2019-03-05T15:00:38.225Z,8.50
2019-03-05T15:03:09.143Z,6.43
2019-03-05T15:05:40.031Z,6.60
2019-03-05T15:08:12.266Z,6.43
2019-03-05T15:10:42.907Z,5.87
2019-03-05T15:13:17.349Z,7.00
2019-03-05T15:15:46.406Z,6.30
2019-03-05T15:18:17.916Z,6.07
2019-03-05T15:20:48.754Z,6.20
2019-03-05T15:23:19.317Z,7.00
2019-03-05T15:25:50.045Z,7.43
2019-03-05T15:28:21.059Z,7.37
2019-03-05T15:30:52.015Z,7.00
2019-03-05T15:33:22.682Z,7.27
2019-03-05T15:35:53.290Z,7.07
2019-03-05T15:38:25.169Z,7.30
2019-03-05T15:40:57.314Z,8.20
2019-03-05T15:43:28.227Z,6.83
2019-03-05T15:45:59.251Z,9.13
2019-03-05T15:48:29.975Z,7.70
2019-03-05T15:51:00.837Z,7.97
2019-03-05T15:53:31.765Z,7.80
2019-03-05T15:56:02.594Z,7.80
2019-03-05T15:58:35.390Z,8.33
2019-03-05T16:01:09.811Z,9.33
2019-03-05T16:03:40.288Z,8.97
2019-03-05T16:06:13.894Z,7.30
2019-03-05T16:08:43.916Z,8.60
2019-03-05T16:11:14.990Z,10.13
2019-03-05T16:13:46.904Z,9.73
2019-03-05T16:16:19.190Z,9.23
2019-03-05T16:18:50.237Z,8.70
2019-03-05T16:21:21.183Z,9.13
2019-03-05T16:23:51.962Z,9.50
2019-03-05T16:26:24.679Z,8.23
2019-03-05T16:28:55.707Z,8.30
2019-03-05T16:31:36.664Z,8.30
2019-03-05T16:34:40.680Z,8.70
2019-03-05T16:37:26.252Z,8.70
2019-03-05T16:40:05.116Z,8.83
2019-03-05T16:42:51.275Z,10.20
2019-03-05T16:45:34.504Z,9.67
2019-03-05T16:48:36.467Z,9.77
2019-03-05T16:51:26.529Z,9.77
2019-03-05T16:54:22.616Z,9.30
2019-03-05T16:57:27.228Z,9.23
2019-03-05T17:00:19.164Z,9.70
2019-03-05T17:03:12.017Z,9.30
2019-03-05T17:05:56.203Z,8.07
2019-03-05T17:08:58.353Z,10.77
2019-03-05T17:11:59.990Z,8.80
2019-03-05T17:14:31.312Z,8.70
2019-03-05T17:17:05.761Z,8.03
2019-03-05T17:19:36.360Z,7.93
2019-03-05T17:22:08.295Z,8.93
2019-03-05T17:24:39.125Z,8.30
2019-03-05T17:27:10.234Z,8.30
2019-03-05T17:29:41.004Z,7.20
2019-03-05T17:32:12.675Z,7.83
2019-03-05T17:34:44.026Z,7.20
2019-03-05T17:37:18.605Z,8.10
2019-03-05T17:39:49.490Z,7.67
2019-03-05T17:42:20.508Z,7.97
2019-03-05T17:44:51.828Z,7.10
2019-03-05T17:47:24.479Z,8.30
2019-03-05T17:49:55.377Z,8.13
2019-03-05T17:52:26.098Z,8.83
2019-03-05T17:54:56.868Z,8.60
2019-03-05T17:57:27.820Z,8.23
2019-03-05T17:59:58.838Z,7.60
2019-03-05T18:02:29.718Z,7.60
2019-03-05T18:05:00.549Z,8.50
2019-03-05T18:07:31.757Z,8.77
2019-03-05T18:10:02.699Z,9.57
2019-03-05T18:12:33.697Z,9.57
2019-03-05T18:15:04.996Z,9.53
2019-03-05T18:17:36.311Z,8.90
2019-03-05T18:20:09.464Z,8.70
2019-03-05T18:22:40.379Z,7.90
2019-03-05T18:25:13.384Z,8.83
2019-03-05T18:27:45.445Z,8.20
2019-03-05T18:30:19.668Z,8.73
2019-03-05T18:32:52.050Z,8.90
2019-03-05T18:35:24.108Z,8.97
2019-03-05T18:37:54.884Z,10.33
2019-03-05T18:40:27.476Z,9.57
2019-03-05T18:42:58.392Z,9.70
2019-03-05T18:45:30.632Z,9.40
2019-03-05T18:48:02.506Z,8.70
2019-03-05T18:50:36.277Z,7.80
2019-03-05T18:53:27.122Z,8.20
2019-03-05T18:55:58.020Z,8.43
2019-03-05T18:58:28.606Z,8.63
2019-03-05T19:00:59.434Z,8.20
2019-03-05T19:03:30.448Z,8.37
2019-03-05T19:06:01.280Z,9.60
2019-03-05T19:08:32.093Z,9.60
2019-03-05T19:11:03.188Z,12.57
2019-03-05T19:13:34.369Z,11.83
2019-03-05T19:16:05.445Z,10.90
2019-03-05T19:18:36.664Z,9.57
2019-03-05T19:21:07.911Z,9.83
2019-03-05T19:23:38.742Z,8.87
2019-03-05T19:26:11.168Z,9.13
2019-03-05T19:28:43.418Z,8.10
2019-03-05T19:31:14.194Z,9.00
2019-03-05T19:33:45.066Z,11.07
2019-03-05T19:36:20.362Z,12.60
2019-03-05T19:38:51.210Z,15.07
2019-03-05T19:41:23.132Z,14.10
2019-03-05T19:43:54.367Z,12.53
2019-03-05T19:46:25.603Z,12.03
2019-03-05T19:48:57.769Z,8.93
2019-03-05T19:51:28.572Z,7.83
2019-03-05T19:53:59.539Z,8.60
2019-03-05T19:56:31.969Z,7.30
2019-03-05T19:59:02.617Z,6.73
2019-03-05T20:01:45.597Z,5.60
2019-03-05T20:04:16.634Z,5.97
2019-03-05T20:06:49.171Z,6.23
2019-03-05T20:09:21.829Z,6.20
2019-03-05T20:11:53.401Z,5.80
2019-03-05T20:14:24.348Z,6.13
2019-03-05T20:16:58.590Z,5.37
2019-03-05T20:19:29.494Z,5.60
2019-03-05T20:22:00.484Z,5.90
2019-03-05T20:24:32.565Z,5.60
2019-03-05T20:27:03.283Z,6.33
2019-03-05T20:29:34.132Z,5.43
2019-03-05T20:32:06.651Z,4.93
2019-03-05T20:34:37.274Z,6.00
2019-03-05T20:37:08.250Z,5.20
2019-03-05T20:39:39.003Z,5.23
2019-03-05T20:42:09.934Z,5.80
2019-03-05T20:44:40.455Z,5.60
2019-03-05T20:47:11.527Z,5.00
2019-03-05T20:49:42.896Z,5.97
2019-03-05T20:52:14.790Z,5.17
2019-03-05T20:54:45.389Z,5.37
2019-03-05T20:57:16.163Z,5.27
2019-03-05T20:59:48.490Z,5.70
2019-03-05T21:02:20.619Z,5.40
2019-03-05T21:04:51.324Z,5.00
2019-03-05T21:07:22.169Z,4.40
2019-03-05T21:09:53.474Z,4.43
2019-03-05T21:12:24.164Z,4.30
2019-03-05T21:14:55.134Z,4.90
2019-03-05T21:17:27.045Z,5.70
2019-03-05T21:19:57.846Z,4.93
2019-03-05T21:22:30.436Z,4.40
2019-03-05T21:25:01.474Z,4.90
2019-03-05T21:27:32.110Z,4.80
2019-03-05T21:30:03.255Z,4.17
2019-03-05T21:32:34.269Z,3.70
2019-03-05T21:35:04.935Z,4.00
2019-03-05T21:37:35.970Z,3.93
2019-03-05T21:40:07.781Z,4.33
2019-03-05T21:42:39.583Z,3.40
2019-03-05T21:45:11.560Z,3.37
2019-03-05T21:47:42.392Z,3.63
2019-03-05T21:50:15.996Z,4.10
2019-03-05T21:52:47.286Z,4.43
2019-03-05T21:55:18.563Z,3.97
2019-03-05T21:57:49.293Z,3.53
2019-03-05T22:00:22.573Z,2.90
2019-03-05T22:02:53.341Z,3.10
2019-03-05T22:05:24.537Z,2.93
2019-03-05T22:07:55.114Z,3.53
2019-03-05T22:10:26.179Z,3.50
2019-03-05T22:12:57.047Z,3.67
2019-03-05T22:15:29.175Z,4.40
2019-03-05T22:17:59.923Z,4.50
2019-03-05T22:20:30.540Z,3.23
2019-03-05T22:23:01.540Z,2.90
2019-03-05T22:25:32.219Z,2.73
2019-03-05T22:28:03.145Z,2.60
2019-03-05T22:30:34.118Z,2.00
2019-03-05T22:33:04.843Z,1.70
2019-03-05T22:35:35.666Z,2.20
2019-03-05T22:38:06.433Z,2.10
2019-03-05T22:40:37.260Z,2.43
2019-03-05T22:43:07.873Z,2.20
2019-03-05T22:45:39.124Z,2.30
2019-03-05T22:48:10.251Z,2.33
2019-03-05T22:50:41.221Z,2.33
2019-03-05T22:53:12.026Z,2.20
2019-03-05T22:55:43.120Z,2.23
2019-03-05T22:58:14.201Z,2.37
2019-03-05T23:01:17.782Z,2.30
2019-03-05T23:03:57.438Z,2.43
2019-03-05T23:06:30.020Z,2.73
2019-03-05T23:09:00.924Z,2.10
2019-03-05T23:11:32.118Z,2.03
2019-03-05T23:14:03.282Z,1.90
2019-03-05T23:16:34.207Z,2.13
2019-03-05T23:19:05.229Z,2.43
2019-03-05T23:21:37.933Z,2.40
2019-03-05T23:24:09.149Z,2.80
2019-03-05T23:26:39.819Z,3.30
2019-03-05T23:29:12.025Z,2.53
2019-03-05T23:31:43.000Z,3.07
2019-03-05T23:34:18.250Z,2.83
2019-03-05T23:36:48.145Z,2.63
2019-03-05T23:39:19.983Z,2.73
2019-03-05T23:41:51.761Z,2.43
2019-03-05T23:44:22.492Z,1.80
2019-03-05T23:46:55.166Z,2.33
2019-03-05T23:49:27.120Z,2.30
2019-03-05T23:52:01.040Z,2.57
2019-03-05T23:54:31.866Z,2.47
2019-03-05T23:57:02.607Z,3.20
2019-03-05T23:59:35.494Z,2.30
